createdAt,value
2023-01-19T00:00:32.302Z,100214.06
2023-01-19T00:02:59.042Z,100251.25
2023-01-19T00:05:25.791Z,100237.50
2023-01-19T00:07:52.525Z,100218.75
2023-01-19T00:10:19.543Z,100226.47
2023-01-19T00:12:46.339Z,100245.50
2023-01-19T00:15:13.049Z,100247.41
2023-01-19T00:17:41.200Z,100251.00
2023-01-19T00:20:09.549Z,100258.94
2023-01-19T00:22:36.561Z,100268.91
2023-01-19T00:25:03.687Z,100228.00
2023-01-19T00:27:34.912Z,100231.34
2023-01-19T00:30:02.165Z,100215.97
2023-01-19T00:32:28.951Z,100225.47
2023-01-19T00:34:55.595Z,100240.06
2023-01-19T00:37:22.261Z,100255.44
2023-01-19T00:39:48.948Z,100266.69
2023-01-19T00:42:33.928Z,100272.69
2023-01-19T00:45:00.647Z,100275.38
2023-01-19T00:47:27.333Z,100275.47
2023-01-19T00:49:53.997Z,100303.13
2023-01-19T00:52:20.646Z,100316.09
2023-01-19T00:54:47.230Z,100306.63
2023-01-19T00:57:15.476Z,100322.91
2023-01-19T00:59:42.221Z,100334.94
2023-01-19T01:02:08.912Z,100351.28
2023-01-19T01:04:35.714Z,100356.44
2023-01-19T01:07:02.411Z,100369.28
2023-01-19T01:09:29.194Z,100391.69
2023-01-19T01:11:56.848Z,100409.16
2023-01-19T01:14:24.186Z,100401.38
2023-01-19T01:16:50.927Z,100394.50
2023-01-19T01:19:17.633Z,100403.16
2023-01-19T01:21:44.318Z,100406.66
2023-01-19T01:24:10.990Z,100423.94
2023-01-19T01:26:37.673Z,100415.38
2023-01-19T01:29:06.500Z,100422.31
2023-01-19T01:31:33.254Z,100411.19
2023-01-19T01:33:59.999Z,100431.84
2023-01-19T01:36:29.223Z,100451.69
2023-01-19T01:38:55.996Z,100463.91
2023-01-19T01:41:25.464Z,100447.03
2023-01-19T01:43:58.473Z,100460.81
2023-01-19T01:46:26.426Z,100450.56
2023-01-19T01:49:23.780Z,100435.03
2023-01-19T01:51:52.683Z,100442.09
2023-01-19T01:54:27.996Z,100443.00
2023-01-19T01:56:55.403Z,100434.38
2023-01-19T01:59:29.799Z,100420.59
2023-01-19T02:02:17.140Z,100441.03
2023-01-19T02:04:52.401Z,100460.09
2023-01-19T02:07:48.907Z,100463.56
2023-01-19T02:10:34.734Z,100467.88
2023-01-19T02:13:20.034Z,100454.06
2023-01-19T02:15:48.493Z,100449.69
2023-01-19T02:18:15.885Z,100448.75
2023-01-19T02:20:48.196Z,100468.53
2023-01-19T02:23:20.424Z,100451.38
2023-01-19T02:25:47.884Z,100482.44
2023-01-19T02:28:15.001Z,100484.06
2023-01-19T02:30:41.865Z,100481.47
2023-01-19T02:33:08.635Z,100489.19
2023-01-19T02:35:38.075Z,100491.78
2023-01-19T02:38:05.384Z,100476.47
2023-01-19T02:40:32.092Z,100479.09
2023-01-19T02:43:01.196Z,100482.50
2023-01-19T02:45:28.243Z,100454.00
2023-01-19T02:47:55.020Z,100481.50
2023-01-19T02:50:46.217Z,100478.88
2023-01-19T02:53:34.742Z,100487.56
2023-01-19T02:56:28.286Z,100514.41
2023-01-19T02:59:11.361Z,100480.84
2023-01-19T03:01:38.171Z,100465.28
2023-01-19T03:04:34.286Z,100482.47
2023-01-19T03:07:11.425Z,100485.13
2023-01-19T03:09:52.842Z,100480.00
2023-01-19T03:12:35.120Z,100480.97
2023-01-19T03:15:07.972Z,100479.22
2023-01-19T03:17:35.328Z,100478.41
2023-01-19T03:20:03.810Z,100465.53
2023-01-19T03:22:30.557Z,100458.66
2023-01-19T03:25:00.177Z,100452.63
2023-01-19T03:27:29.703Z,100473.25
2023-01-19T03:30:00.951Z,100484.44
2023-01-19T03:32:55.444Z,100497.44
2023-01-19T03:35:24.382Z,100487.13
2023-01-19T03:37:53.290Z,100491.53
2023-01-19T03:40:20.168Z,100482.06
2023-01-19T03:42:47.030Z,100481.25
2023-01-19T03:45:14.804Z,100475.22
2023-01-19T03:47:42.087Z,100488.94
2023-01-19T03:50:14.083Z,100506.13
2023-01-19T03:52:40.749Z,100518.25
2023-01-19T03:55:07.699Z,100525.97
2023-01-19T03:57:34.431Z,100525.16
2023-01-19T04:00:01.133Z,100515.72
2023-01-19T04:02:27.843Z,100537.34
2023-01-19T04:04:54.449Z,100546.84
2023-01-19T04:07:21.117Z,100539.94
2023-01-19T04:09:47.773Z,100552.03
2023-01-19T04:12:14.392Z,100550.38
2023-01-19T04:14:41.075Z,100550.47
2023-01-19T04:17:07.765Z,100538.47
2023-01-19T04:19:34.413Z,100538.50
2023-01-19T04:22:02.201Z,100547.09
2023-01-19T04:24:29.003Z,100547.13
2023-01-19T04:26:55.650Z,100558.38
2023-01-19T04:29:22.292Z,100530.78
2023-01-19T04:31:48.948Z,100548.03
2023-01-19T04:34:15.690Z,100554.94
2023-01-19T04:36:42.307Z,100550.63
2023-01-19T04:39:09.290Z,100560.06
2023-01-19T04:41:36.020Z,100552.28
2023-01-19T04:44:02.745Z,100541.88
2023-01-19T04:46:29.439Z,100528.91
2023-01-19T04:48:56.051Z,100556.47
2023-01-19T04:51:22.822Z,100552.16
2023-01-19T04:53:49.435Z,100570.34
2023-01-19T04:56:16.130Z,100563.44
2023-01-19T04:58:42.764Z,100582.38
2023-01-19T05:01:10.102Z,100590.22
2023-01-19T05:03:36.765Z,100598.00
2023-01-19T05:06:03.484Z,100581.63
2023-01-19T05:08:31.131Z,100592.03
2023-01-19T05:10:58.104Z,100597.19
2023-01-19T05:13:24.854Z,100616.19
2023-01-19T05:15:51.588Z,100624.78
2023-01-19T05:18:18.709Z,100631.69
2023-01-19T05:20:45.386Z,100630.78
2023-01-19T05:23:12.105Z,100638.56
2023-01-19T05:25:38.767Z,100648.06
2023-01-19T05:28:05.508Z,100662.69
2023-01-19T05:30:34.378Z,100647.13
2023-01-19T05:33:10.089Z,100631.53
2023-01-19T05:35:46.923Z,100674.72
2023-01-19T05:41:57.330Z,100640.13
2023-01-19T05:48:57.384Z,100678.03
2023-01-19T05:51:24.004Z,100698.63
2023-01-19T05:53:50.835Z,100710.69
2023-01-19T05:56:17.503Z,100679.53
2023-01-19T05:58:44.178Z,100665.56
2023-01-19T06:01:11.237Z,100676.78
2023-01-19T06:03:39.463Z,100681.16
2023-01-19T06:06:06.538Z,100670.81
2023-01-19T06:08:33.125Z,100662.97
2023-01-19T06:10:59.731Z,100644.81
2023-01-19T06:13:26.497Z,100632.69
2023-01-19T06:16:00.642Z,100613.66
2023-01-19T06:18:28.099Z,100572.09
2023-01-19T06:20:58.795Z,100554.63
2023-01-19T06:23:26.822Z,100525.97
2023-01-19T06:25:53.535Z,100518.84
2023-01-19T06:28:20.263Z,100505.78
2023-01-19T06:30:50.831Z,100492.72
2023-01-19T06:33:18.005Z,100465.91
2023-01-19T06:35:49.100Z,100454.47
2023-01-19T06:38:17.199Z,100434.41
2023-01-19T06:40:44.061Z,100404.28
2023-01-19T06:43:11.211Z,100371.41
2023-01-19T06:45:39.365Z,100323.19
2023-01-19T06:48:06.613Z,100293.16
2023-01-19T06:50:33.405Z,100249.09
2023-01-19T06:53:00.413Z,100229.34
2023-01-19T06:55:27.697Z,100230.19
2023-01-19T06:57:59.118Z,100222.47
2023-01-19T07:00:26.218Z,100220.75
2023-01-19T07:02:53.246Z,100219.06
2023-01-19T07:05:20.038Z,100233.78
2023-01-19T07:07:52.046Z,100258.03
2023-01-19T07:10:18.955Z,100277.31
2023-01-19T07:12:47.446Z,100276.66
2023-01-19T07:15:15.608Z,100276.16
2023-01-19T07:17:42.387Z,100305.56
2023-01-19T07:20:13.112Z,100341.03
2023-01-19T07:22:41.160Z,100371.28
2023-01-19T07:25:08.339Z,100407.66
2023-01-19T07:27:35.006Z,100450.94
2023-01-19T07:30:01.763Z,100456.28
2023-01-19T07:32:29.016Z,100483.13
2023-01-19T07:34:55.832Z,100494.44
2023-01-19T07:37:22.712Z,100510.03
2023-01-19T07:39:49.373Z,100542.88
2023-01-19T07:42:16.029Z,100559.28
2023-01-19T07:44:42.872Z,100578.31
2023-01-19T07:47:12.711Z,100584.38
2023-01-19T07:49:39.872Z,100625.84
2023-01-19T07:52:06.619Z,100643.09
2023-01-19T07:54:33.741Z,100647.44
2023-01-19T07:57:03.196Z,100666.47
2023-01-19T07:59:31.167Z,100666.47
2023-01-19T08:01:59.627Z,100680.28
2023-01-19T08:04:27.677Z,100692.41
2023-01-19T08:06:55.572Z,100701.91
2023-01-19T08:09:22.346Z,100718.31
2023-01-19T08:11:48.985Z,100710.53
2023-01-19T08:14:15.617Z,100737.31
2023-01-19T08:16:42.272Z,100760.66
2023-01-19T08:19:08.924Z,100751.16
2023-01-19T08:21:36.648Z,100757.19
2023-01-19T08:24:03.504Z,100791.75
2023-01-19T08:26:32.559Z,100802.13
2023-01-19T08:29:02.323Z,100817.69
2023-01-19T08:31:29.364Z,100839.28
2023-01-19T08:33:56.669Z,100833.22
2023-01-19T08:36:25.099Z,100838.41
2023-01-19T08:38:52.082Z,100952.56
2023-01-19T08:41:18.844Z,100918.78
2023-01-19T08:43:45.855Z,100978.53
2023-01-19T08:46:12.819Z,100981.09
2023-01-19T08:48:40.106Z,100990.63
2023-01-19T08:51:06.795Z,100977.63
2023-01-19T08:53:34.283Z,100961.22
2023-01-19T08:56:02.377Z,100964.66
2023-01-19T09:02:11.349Z,100986.41
2023-01-19T09:04:38.147Z,100985.56
2023-01-19T09:09:37.961Z,100988.16
2023-01-19T09:12:04.784Z,100982.97
2023-01-19T09:14:31.477Z,100994.25
2023-01-19T09:16:59.152Z,100956.13
2023-01-19T09:19:25.912Z,100953.56
2023-01-19T09:21:54.545Z,100934.50
2023-01-19T09:24:21.281Z,100903.34
2023-01-19T09:26:48.055Z,100906.84
2023-01-19T09:29:14.648Z,100902.50
2023-01-19T09:31:41.992Z,100884.31
2023-01-19T09:34:08.749Z,100891.22
2023-01-19T09:36:37.388Z,100904.16
2023-01-19T09:39:04.120Z,100886.88
2023-01-19T09:41:34.103Z,100883.38
2023-01-19T09:44:01.189Z,100861.75
2023-01-19T09:46:41.750Z,100871.22
2023-01-19T09:49:23.460Z,100866.84
2023-01-19T09:51:51.286Z,100827.97
2023-01-19T09:54:20.887Z,100821.03
2023-01-19T09:56:52.179Z,100802.88
2023-01-19T09:59:22.395Z,100818.38
2023-01-19T10:02:08.148Z,100808.00
2023-01-19T10:04:39.017Z,100800.22
2023-01-19T10:07:11.532Z,100809.59
2023-01-19T10:10:02.760Z,100791.47
2023-01-19T10:12:38.644Z,100774.19
2023-01-19T10:15:11.498Z,100769.84
2023-01-19T10:17:53.619Z,100760.25
2023-01-19T10:20:33.515Z,100767.16
2023-01-19T10:23:01.180Z,100763.69
2023-01-19T10:25:28.147Z,100748.84
2023-01-19T10:27:54.855Z,100753.28
2023-01-19T10:30:28.171Z,100748.91
2023-01-19T10:32:54.998Z,100759.25
2023-01-19T10:35:25.188Z,100744.59
2023-01-19T10:37:57.062Z,100735.06
2023-01-19T10:40:45.098Z,100735.88
2023-01-19T10:43:43.557Z,100719.47
2023-01-19T10:46:23.662Z,100733.19
2023-01-19T10:48:52.384Z,100721.94
2023-01-19T10:51:19.941Z,100725.41
2023-01-19T10:53:58.310Z,100725.31
2023-01-19T10:56:34.463Z,100732.06
2023-01-19T10:59:03.270Z,100709.69
2023-01-19T11:01:31.400Z,100681.25
2023-01-19T11:04:05.763Z,100678.66
2023-01-19T11:06:34.409Z,100687.22
2023-01-19T11:09:18.993Z,100687.09
2023-01-19T11:11:48.911Z,100696.56
2023-01-19T11:14:19.532Z,100675.88
2023-01-19T11:16:51.882Z,100651.69
2023-01-19T11:19:30.246Z,100664.56
2023-01-19T11:22:15.127Z,100653.31
2023-01-19T11:24:43.613Z,100650.72
2023-01-19T11:27:10.243Z,100655.03
2023-01-19T11:29:37.473Z,100656.69
2023-01-19T11:32:20.624Z,100666.91
2023-01-19T11:34:47.413Z,100641.88
2023-01-19T11:37:17.417Z,100628.06
2023-01-19T11:40:02.686Z,100633.25
2023-01-19T11:42:31.682Z,100630.59
2023-01-19T11:44:59.435Z,100627.91
2023-01-19T11:50:42.839Z,100591.69
2023-01-19T11:53:31.072Z,100618.31
2023-01-19T11:56:14.140Z,100617.41
2023-01-19T11:58:48.073Z,100618.31
2023-01-19T12:01:22.422Z,100620.78
2023-01-19T12:04:01.106Z,100595.81
2023-01-19T12:06:36.098Z,100625.84
2023-01-19T12:09:11.921Z,100623.06
2023-01-19T12:11:41.837Z,100586.97
2023-01-19T12:14:22.957Z,100604.88
2023-01-19T12:16:52.215Z,100605.81
2023-01-19T12:19:23.747Z,100605.56
2023-01-19T12:21:52.573Z,100601.19
2023-01-19T12:24:19.187Z,100596.75
2023-01-19T12:27:00.723Z,100586.38
2023-01-19T12:29:35.407Z,100583.84
2023-01-19T12:32:14.182Z,100587.75
2023-01-19T12:34:55.963Z,100588.41
2023-01-19T12:37:31.564Z,100589.28
2023-01-19T12:40:00.107Z,100595.94
2023-01-19T12:42:27.353Z,100602.63
2023-01-19T12:45:12.161Z,100588.88
2023-01-19T12:47:39.161Z,100596.53
2023-01-19T12:50:11.463Z,100606.78
2023-01-19T12:52:49.513Z,100603.19
2023-01-19T12:55:25.722Z,100587.41
2023-01-19T12:58:13.725Z,100568.19
2023-01-19T13:00:42.893Z,100544.91
2023-01-19T13:03:18.612Z,100547.19
2023-01-19T13:05:49.246Z,100524.41
2023-01-19T13:08:18.310Z,100492.53
2023-01-19T13:11:00.371Z,100482.63
2023-01-19T13:13:47.870Z,100461.84
2023-01-19T13:16:20.778Z,100464.91
2023-01-19T13:19:07.966Z,100441.63
2023-01-19T13:21:45.658Z,100429.28
2023-01-19T13:24:22.690Z,100411.09
2023-01-19T13:26:49.256Z,100416.91
2023-01-19T13:29:21.415Z,100397.72
2023-01-19T13:31:53.688Z,100380.41
2023-01-19T13:34:23.376Z,100391.53
2023-01-19T13:36:52.720Z,100362.34
2023-01-19T13:39:41.607Z,100369.25
2023-01-19T13:42:15.860Z,100358.56
2023-01-19T13:44:51.532Z,100360.16
2023-01-19T13:47:23.557Z,100341.75
2023-01-19T13:49:58.616Z,100292.56
2023-01-19T13:52:26.105Z,100313.97
2023-01-19T13:54:54.718Z,100310.31
2023-01-19T13:57:27.338Z,100304.13
2023-01-19T14:00:12.729Z,100290.16
2023-01-19T14:03:01.052Z,100229.38
2023-01-19T14:05:35.781Z,100232.28
2023-01-19T14:08:08.896Z,100258.84
2023-01-19T14:10:37.100Z,100200.06
2023-01-19T14:13:06.245Z,100243.94
2023-01-19T14:15:34.784Z,100228.94
2023-01-19T14:18:22.405Z,100219.56
2023-01-19T14:21:03.584Z,100205.59
2023-01-19T14:23:48.457Z,100216.47
2023-01-19T14:26:40.231Z,100207.16
2023-01-19T14:29:09.954Z,100202.69
2023-01-19T14:31:45.385Z,100177.75
2023-01-19T14:34:46.199Z,100185.22
2023-01-19T14:37:28.751Z,100173.25
2023-01-19T14:40:14.895Z,100173.31
2023-01-19T14:43:00.232Z,100157.44
2023-01-19T14:45:40.596Z,100157.28
2023-01-19T14:48:18.812Z,100148.00
2023-01-19T14:51:01.940Z,100138.41
2023-01-19T14:53:32.138Z,100131.31
2023-01-19T14:56:04.846Z,100119.97
2023-01-19T14:58:33.635Z,100109.75
2023-01-19T15:01:00.475Z,100122.44
2023-01-19T15:03:43.353Z,100127.66
2023-01-19T15:06:15.964Z,100109.50
2023-01-19T15:08:42.969Z,100072.38
2023-01-19T15:11:13.938Z,100103.31
2023-01-19T15:13:41.696Z,100092.06
2023-01-19T15:16:09.187Z,100063.41
2023-01-19T15:18:36.240Z,100086.66
2023-01-19T15:21:03.458Z,100076.22
2023-01-19T15:23:31.003Z,100086.50
2023-01-19T15:26:01.600Z,100083.75
2023-01-19T15:28:28.284Z,100084.59
2023-01-19T15:30:55.071Z,100072.28
2023-01-19T15:33:23.615Z,100068.91
2023-01-19T15:35:50.587Z,100063.53
2023-01-19T15:38:17.313Z,100058.41
2023-01-19T15:40:44.318Z,100049.00
2023-01-19T15:43:11.289Z,100051.47
2023-01-19T15:45:44.332Z,100045.44
2023-01-19T15:48:11.996Z,100044.88
2023-01-19T15:50:43.919Z,100028.28
2023-01-19T15:53:15.848Z,100042.78
2023-01-19T15:55:43.063Z,100025.78
2023-01-19T15:58:10.049Z,100009.59
2023-01-19T16:00:36.753Z,100009.47
2023-01-19T16:03:03.671Z,100018.00
2023-01-19T16:05:42.565Z,100021.31
2023-01-19T16:08:11.128Z,100024.69
2023-01-19T16:10:38.035Z,100015.97
2023-01-19T16:13:04.685Z,100026.22
2023-01-19T16:15:31.318Z,100028.13
2023-01-19T16:17:58.529Z,100019.59
2023-01-19T16:20:25.185Z,100010.19
2023-01-19T16:22:51.824Z,100017.69
2023-01-19T16:25:18.514Z,100023.34
2023-01-19T16:27:45.187Z,100019.25
2023-01-19T16:30:12.891Z,100012.09
2023-01-19T16:32:39.668Z,100005.38
2023-01-19T16:35:06.647Z,99994.97
2023-01-19T16:37:33.512Z,99992.41
2023-01-19T16:40:00.133Z,99998.28
2023-01-19T16:42:27.102Z,99988.66
2023-01-19T16:44:54.645Z,99984.38
